createdAt,value
2019-03-06T00:01:07.168Z,89.30
2019-03-06T00:03:33.846Z,89.27
2019-03-06T00:06:00.674Z,89.38
2019-03-06T00:08:27.341Z,89.16
2019-03-06T00:10:54.028Z,89.04
2019-03-06T00:13:20.952Z,88.89
2019-03-06T00:15:48.014Z,88.95
2019-03-06T00:18:14.757Z,88.82
2019-03-06T00:20:41.515Z,89.06
2019-03-06T00:23:08.239Z,89.07
2019-03-06T00:25:34.929Z,89.36
2019-03-06T00:28:01.607Z,89.67
2019-03-06T00:30:28.449Z,89.70
2019-03-06T00:32:55.100Z,89.78
2019-03-06T00:35:24.987Z,89.93
2019-03-06T00:37:51.809Z,90.17
2019-03-06T00:40:26.423Z,90.27
2019-03-06T00:42:53.267Z,90.36
2019-03-06T00:45:19.812Z,90.49
2019-03-06T00:47:46.479Z,90.62
2019-03-06T00:50:13.333Z,90.70
2019-03-06T00:52:40.004Z,90.76
2019-03-06T00:55:06.820Z,90.87
2019-03-06T00:57:33.650Z,90.93
2019-03-06T01:00:00.398Z,90.93
2019-03-06T01:02:27.129Z,90.93
2019-03-06T01:04:53.920Z,90.84
2019-03-06T01:07:20.940Z,90.79
2019-03-06T01:09:47.501Z,90.84
2019-03-06T01:12:14.280Z,90.87
2019-03-06T01:14:40.966Z,90.91
2019-03-06T01:17:07.620Z,90.93
2019-03-06T01:19:34.452Z,90.92
2019-03-06T01:22:01.103Z,90.89
2019-03-06T01:24:27.867Z,90.83
2019-03-06T01:26:54.571Z,90.85
2019-03-06T01:29:21.222Z,90.81
2019-03-06T01:31:47.999Z,90.76
2019-03-06T01:34:39.730Z,90.77
2019-03-06T01:37:21.318Z,90.82
2019-03-06T01:40:06.265Z,90.80
2019-03-06T01:42:38.380Z,90.88
2019-03-06T01:45:07.753Z,90.88
2019-03-06T01:47:34.434Z,90.92
2019-03-06T01:50:01.090Z,90.96
2019-03-06T01:52:27.928Z,91.04
2019-03-06T01:54:54.669Z,91.29
2019-03-06T01:57:21.435Z,91.39
2019-03-06T01:59:48.101Z,91.46
2019-03-06T02:02:14.871Z,91.59
2019-03-06T02:04:41.556Z,91.64
2019-03-06T02:07:08.582Z,91.74
2019-03-06T02:09:35.117Z,91.77
2019-03-06T02:12:01.753Z,91.81
2019-03-06T02:14:28.302Z,91.80
2019-03-06T02:16:54.830Z,91.89
2019-03-06T02:19:21.458Z,91.86
2019-03-06T02:21:47.979Z,91.84
2019-03-06T02:24:14.610Z,91.92
2019-03-06T02:26:41.368Z,91.83
2019-03-06T02:29:08.038Z,91.78
2019-03-06T02:31:34.678Z,91.65
2019-03-06T02:34:01.342Z,91.65
2019-03-06T02:36:27.994Z,91.63
2019-03-06T02:38:54.651Z,91.50
2019-03-06T02:41:21.286Z,91.45
2019-03-06T02:43:47.811Z,91.37
2019-03-06T02:46:14.345Z,91.39
2019-03-06T02:48:40.873Z,91.35
2019-03-06T02:51:09.079Z,91.35
2019-03-06T02:53:36.058Z,91.36
2019-03-06T02:56:02.789Z,91.28
2019-03-06T02:58:51.618Z,91.26
2019-03-06T03:01:37.565Z,91.25
2019-03-06T03:04:17.682Z,91.21
2019-03-06T03:06:47.912Z,91.18
2019-03-06T03:09:16.207Z,91.17
2019-03-06T03:11:42.863Z,91.13
2019-03-06T03:14:09.494Z,91.02
2019-03-06T03:16:36.011Z,90.96
2019-03-06T03:19:02.539Z,90.89
2019-03-06T03:21:29.219Z,90.93
2019-03-06T03:23:55.836Z,90.88
2019-03-06T03:26:22.414Z,90.82
2019-03-06T03:28:49.251Z,90.78
2019-03-06T03:31:15.968Z,90.70
2019-03-06T03:33:42.521Z,90.62
2019-03-06T03:36:09.055Z,90.54
2019-03-06T03:38:35.687Z,90.58
2019-03-06T03:41:02.342Z,90.61
2019-03-06T03:43:28.872Z,90.57
2019-03-06T03:45:55.511Z,90.59
2019-03-06T03:48:22.129Z,90.67
2019-03-06T03:50:48.752Z,90.81
2019-03-06T03:53:15.338Z,90.90
2019-03-06T03:55:41.851Z,90.92
2019-03-06T03:58:08.568Z,90.91
2019-03-06T04:00:35.526Z,90.89
2019-03-06T04:03:02.149Z,90.87
2019-03-06T04:05:28.779Z,90.87
2019-03-06T04:07:55.407Z,91.04
2019-03-06T04:10:22.161Z,91.14
2019-03-06T04:12:48.823Z,91.02
2019-03-06T04:15:15.843Z,91.08
2019-03-06T04:17:42.431Z,91.01
2019-03-06T04:20:09.984Z,91.10
2019-03-06T04:22:36.514Z,91.29
2019-03-06T04:25:03.561Z,91.43
2019-03-06T04:27:30.157Z,91.52
2019-03-06T04:29:56.778Z,91.51
2019-03-06T04:32:23.532Z,91.45
2019-03-06T04:34:50.065Z,91.40
2019-03-06T04:37:16.701Z,91.28
2019-03-06T04:39:43.318Z,91.15
2019-03-06T04:42:10.241Z,91.04
2019-03-06T04:44:36.748Z,91.01
2019-03-06T04:47:03.494Z,90.98
2019-03-06T04:49:30.025Z,90.89
2019-03-06T04:51:56.550Z,90.84
2019-03-06T04:54:23.075Z,90.77
2019-03-06T04:56:49.609Z,90.82
2019-03-06T04:59:16.236Z,90.75
2019-03-06T05:01:43.068Z,90.77
2019-03-06T05:04:09.801Z,90.79
2019-03-06T05:06:36.319Z,90.84
2019-03-06T05:09:05.105Z,90.78
2019-03-06T05:11:31.780Z,90.85
2019-03-06T05:13:58.340Z,90.87
2019-03-06T05:17:03.246Z,90.86
2019-03-06T05:19:29.798Z,90.89
2019-03-06T05:21:56.570Z,90.86
2019-03-06T05:24:23.211Z,90.88
2019-03-06T05:26:49.847Z,90.94
2019-03-06T05:29:16.465Z,90.98
2019-03-06T05:32:25.660Z,90.99
2019-03-06T05:34:52.290Z,90.97
2019-03-06T05:37:43.920Z,90.97
2019-03-06T05:40:10.606Z,91.04
2019-03-06T05:42:37.129Z,91.01
2019-03-06T05:45:04.048Z,91.07
2019-03-06T05:47:30.563Z,91.05
2019-03-06T05:49:57.092Z,91.11
2019-03-06T05:52:23.754Z,91.11
2019-03-06T05:54:50.267Z,91.09
2019-03-06T05:57:16.790Z,91.02
2019-03-06T05:59:43.323Z,91.06
2019-03-06T06:02:09.964Z,91.06
2019-03-06T06:04:36.585Z,91.06
2019-03-06T06:07:03.292Z,91.11
2019-03-06T06:09:29.910Z,91.11
2019-03-06T06:11:56.585Z,90.93
2019-03-06T06:14:23.103Z,90.87
2019-03-06T06:16:49.764Z,90.87
2019-03-06T06:19:16.281Z,90.87
2019-03-06T06:22:07.219Z,90.91
2019-03-06T06:24:33.832Z,90.86
2019-03-06T06:27:00.359Z,90.83
2019-03-06T06:29:26.931Z,90.84
2019-03-06T06:31:53.554Z,90.73
2019-03-06T06:34:20.120Z,90.78
2019-03-06T06:36:46.713Z,90.83
2019-03-06T06:39:13.246Z,90.86
2019-03-06T06:41:39.883Z,90.86
2019-03-06T06:44:06.496Z,91.00
2019-03-06T06:46:33.333Z,91.11
2019-03-06T06:48:59.844Z,91.07
2019-03-06T06:52:07.111Z,91.03
2019-03-06T06:55:05.436Z,91.02
2019-03-06T06:57:51.099Z,90.96
2019-03-06T07:01:16.925Z,91.22
2019-03-06T07:05:09.298Z,90.88
2019-03-06T07:07:54.023Z,90.65
2019-03-06T07:10:39.064Z,90.32
2019-03-06T07:13:19.732Z,89.98
2019-03-06T07:15:56.344Z,89.94
2019-03-06T07:18:40.953Z,89.80
2019-03-06T07:21:12.084Z,89.73
2019-03-06T07:23:58.376Z,89.68
2019-03-06T07:26:38.142Z,89.63
2019-03-06T07:29:28.250Z,89.51
2019-03-06T07:32:20.304Z,89.31
2019-03-06T07:35:42.155Z,89.15
2019-03-06T07:38:08.845Z,88.93
2019-03-06T07:40:55.244Z,88.40
2019-03-06T07:43:36.152Z,88.30
2019-03-06T07:46:34.401Z,87.96
2019-03-06T07:49:20.932Z,87.58
2019-03-06T07:51:55.734Z,87.39
2019-03-06T07:54:36.030Z,87.40
2019-03-06T07:57:37.561Z,87.46
2019-03-06T08:00:17.403Z,86.96
2019-03-06T08:03:18.992Z,86.49
2019-03-06T08:05:45.655Z,85.53
2019-03-06T08:08:12.179Z,85.08
2019-03-06T08:10:39.843Z,84.59
2019-03-06T08:13:30.081Z,83.64
2019-03-06T08:16:10.252Z,82.60
2019-03-06T08:18:59.150Z,82.33
2019-03-06T08:21:43.392Z,82.23
2019-03-06T08:24:27.983Z,82.65
2019-03-06T08:26:55.042Z,82.66
2019-03-06T08:29:21.567Z,82.76
2019-03-06T08:31:51.562Z,83.08
2019-03-06T08:34:18.080Z,83.10
2019-03-06T08:36:46.060Z,83.51
2019-03-06T08:39:20.596Z,83.63
2019-03-06T08:41:47.630Z,83.35
2019-03-06T08:44:14.433Z,83.20
2019-03-06T08:46:59.587Z,82.81
2019-03-06T08:49:50.103Z,82.99
2019-03-06T08:52:39.101Z,83.15
2019-03-06T08:55:26.700Z,82.89
2019-03-06T08:58:15.993Z,82.93
2019-03-06T09:01:09.083Z,82.78
2019-03-06T09:03:54.256Z,81.89
2019-03-06T09:06:40.624Z,82.13
2019-03-06T09:09:36.471Z,82.52
2019-03-06T09:12:18.554Z,81.90
2019-03-06T09:15:03.498Z,81.49
2019-03-06T09:17:56.043Z,81.40
2019-03-06T09:20:41.029Z,81.03
2019-03-06T09:23:29.803Z,81.81
2019-03-06T09:26:20.481Z,81.67
2019-03-06T09:29:01.331Z,81.10
2019-03-06T09:31:46.648Z,81.03
2019-03-06T09:34:35.277Z,81.23
2019-03-06T09:37:08.028Z,80.66
2019-03-06T09:39:54.386Z,80.07
2019-03-06T09:42:43.087Z,80.35
2019-03-06T09:45:29.366Z,78.97
2019-03-06T09:48:06.101Z,78.32
2019-03-06T09:50:55.081Z,77.80
2019-03-06T09:53:37.908Z,76.78
2019-03-06T09:56:33.215Z,76.51
2019-03-06T09:59:05.775Z,76.66
2019-03-06T10:01:52.077Z,76.54
2019-03-06T10:04:38.296Z,76.11
2019-03-06T10:07:25.141Z,74.10
2019-03-06T10:10:09.357Z,72.97
2019-03-06T10:12:47.586Z,71.18
2019-03-06T10:15:46.542Z,70.53
2019-03-06T10:18:20.800Z,67.49
2019-03-06T10:20:47.592Z,67.02
2019-03-06T10:23:14.630Z,63.54
2019-03-06T10:25:41.393Z,60.66
2019-03-06T10:28:08.919Z,58.50
2019-03-06T10:30:35.566Z,56.00
2019-03-06T10:33:02.218Z,49.98
2019-03-06T10:35:28.942Z,47.44
2019-03-06T10:37:55.906Z,46.06
2019-03-06T10:40:22.544Z,45.59
2019-03-06T10:42:49.444Z,46.87
2019-03-06T10:45:16.827Z,47.86
2019-03-06T10:47:43.821Z,48.44
2019-03-06T10:50:12.761Z,47.10
2019-03-06T10:52:39.392Z,46.85
2019-03-06T10:55:07.378Z,45.00
2019-03-06T10:57:34.084Z,44.14
2019-03-06T11:00:00.637Z,43.75
2019-03-06T11:02:27.554Z,42.83
2019-03-06T11:05:01.157Z,40.15
2019-03-06T11:07:27.801Z,37.53
2019-03-06T11:09:54.459Z,35.77
2019-03-06T11:12:22.299Z,36.31
2019-03-06T11:14:50.017Z,35.60
2019-03-06T11:17:19.376Z,36.62
2019-03-06T11:19:46.453Z,37.95
2019-03-06T11:22:13.202Z,39.44
2019-03-06T11:24:40.058Z,38.93
2019-03-06T11:27:07.133Z,38.68
2019-03-06T11:29:33.886Z,38.37
2019-03-06T11:32:00.506Z,39.78
2019-03-06T11:34:27.163Z,41.06
2019-03-06T11:36:54.005Z,41.33
2019-03-06T11:39:20.958Z,41.34
2019-03-06T11:41:47.615Z,39.82
2019-03-06T11:44:14.295Z,40.88
2019-03-06T11:46:41.090Z,40.22
2019-03-06T11:49:07.872Z,39.45
2019-03-06T11:51:34.534Z,39.03
2019-03-06T11:54:01.188Z,39.83
2019-03-06T11:56:28.034Z,41.17
2019-03-06T11:58:54.961Z,41.59
2019-03-06T12:01:25.313Z,40.83
2019-03-06T12:03:52.329Z,40.94
2019-03-06T12:06:18.972Z,38.63
2019-03-06T12:08:46.166Z,37.40
2019-03-06T12:11:12.830Z,39.41
2019-03-06T12:13:39.662Z,40.05
2019-03-06T12:16:07.633Z,40.34
2019-03-06T12:18:36.834Z,40.74
2019-03-06T12:21:03.740Z,41.31
2019-03-06T12:23:30.458Z,42.39
2019-03-06T12:25:57.322Z,44.02
2019-03-06T12:28:23.954Z,45.78
2019-03-06T12:30:50.873Z,46.01
2019-03-06T12:33:20.314Z,46.77
2019-03-06T12:35:47.142Z,48.31
2019-03-06T12:38:13.791Z,48.23
2019-03-06T12:40:40.341Z,47.26
2019-03-06T12:43:07.074Z,48.39
2019-03-06T12:45:33.900Z,47.38
2019-03-06T12:48:01.004Z,47.65
2019-03-06T12:50:28.543Z,48.89
2019-03-06T12:52:55.243Z,47.64
2019-03-06T12:55:21.988Z,47.51
2019-03-06T12:57:48.729Z,48.00
2019-03-06T13:00:19.505Z,47.98
2019-03-06T13:02:46.396Z,47.40
2019-03-06T13:05:13.129Z,48.09
2019-03-06T13:07:40.157Z,48.37
2019-03-06T13:10:08.049Z,47.71
2019-03-06T13:12:34.775Z,47.50
2019-03-06T13:15:01.443Z,48.53
2019-03-06T13:17:29.698Z,48.04
2019-03-06T13:19:56.404Z,47.98
2019-03-06T13:22:23.452Z,47.94
2019-03-06T13:24:50.068Z,48.62
2019-03-06T13:27:16.686Z,47.97
2019-03-06T13:29:43.219Z,47.91
2019-03-06T13:32:12.007Z,48.27
2019-03-06T13:34:50.394Z,48.40
2019-03-06T13:37:10.968Z,48.53
2019-03-06T13:39:37.509Z,49.25
2019-03-06T13:42:04.404Z,48.95
2019-03-06T13:44:30.957Z,49.06
2019-03-06T13:46:57.764Z,49.39
2019-03-06T13:49:24.434Z,49.04
2019-03-06T13:51:51.153Z,50.10
2019-03-06T13:54:17.798Z,49.74
2019-03-06T13:56:44.828Z,49.14
2019-03-06T13:59:11.472Z,49.43
2019-03-06T14:01:38.201Z,50.13
2019-03-06T14:04:05.014Z,49.47
2019-03-06T14:06:31.652Z,49.48
2019-03-06T14:08:58.357Z,49.49
2019-03-06T14:11:24.892Z,50.06
2019-03-06T14:13:51.535Z,49.72
2019-03-06T14:16:18.351Z,50.13
2019-03-06T14:18:46.101Z,50.51
2019-03-06T14:21:12.756Z,50.03
2019-03-06T14:23:39.398Z,50.08
2019-03-06T14:26:06.770Z,50.28
2019-03-06T14:28:33.557Z,50.23
2019-03-06T14:31:00.072Z,51.62
2019-03-06T14:33:27.109Z,51.33
2019-03-06T14:35:53.796Z,51.32
2019-03-06T14:38:20.717Z,52.44
2019-03-06T14:40:48.442Z,51.62
2019-03-06T14:43:15.100Z,52.15
2019-03-06T14:45:41.924Z,52.11
2019-03-06T14:48:08.593Z,52.75
2019-03-06T14:50:35.114Z,52.47
2019-03-06T14:53:01.851Z,53.00
2019-03-06T14:55:28.518Z,52.47
2019-03-06T14:57:55.228Z,52.47
2019-03-06T15:00:22.076Z,52.88
2019-03-06T15:02:48.855Z,52.51
2019-03-06T15:05:16.087Z,52.71
2019-03-06T15:07:42.856Z,52.83
2019-03-06T15:10:11.338Z,52.89
2019-03-06T15:12:37.991Z,53.46
2019-03-06T15:15:05.211Z,52.69
2019-03-06T15:17:31.853Z,52.44
2019-03-06T15:19:58.375Z,52.64
2019-03-06T15:22:24.968Z,52.43
2019-03-06T15:24:51.624Z,52.24
2019-03-06T15:27:18.482Z,52.34
2019-03-06T15:29:45.201Z,52.42
2019-03-06T15:32:12.184Z,52.22
2019-03-06T15:34:38.761Z,51.82
2019-03-06T15:37:05.508Z,52.13
2019-03-06T15:39:42.202Z,51.86
2019-03-06T15:42:03.985Z,51.99
2019-03-06T15:44:31.054Z,52.43
2019-03-06T15:46:57.693Z,52.55
2019-03-06T15:49:24.435Z,53.07
2019-03-06T15:51:51.252Z,53.42
2019-03-06T15:54:17.880Z,53.49
2019-03-06T15:56:44.420Z,53.74
2019-03-06T15:59:15.013Z,53.63
2019-03-06T16:01:39.668Z,54.00
2019-03-06T16:04:06.423Z,54.44
2019-03-06T16:06:33.086Z,54.58
2019-03-06T16:08:59.778Z,55.16
2019-03-06T16:11:26.520Z,55.18
2019-03-06T16:13:53.400Z,55.31
2019-03-06T16:16:20.439Z,55.76
2019-03-06T16:18:47.377Z,56.14
2019-03-06T16:21:14.064Z,56.77
2019-03-06T16:23:40.633Z,57.07
2019-03-06T16:26:09.956Z,57.35
2019-03-06T16:28:36.983Z,57.72
2019-03-06T16:31:03.786Z,58.42
2019-03-06T16:33:30.674Z,58.38
2019-03-06T16:35:57.661Z,58.79
2019-03-06T16:38:24.363Z,58.78
2019-03-06T16:40:50.918Z,59.37
2019-03-06T16:43:17.554Z,59.44
2019-03-06T16:45:44.290Z,59.71
2019-03-06T16:48:10.949Z,60.03
2019-03-06T16:50:37.933Z,60.08
2019-03-06T16:53:04.836Z,60.50
2019-03-06T16:55:31.526Z,60.42
2019-03-06T16:57:58.640Z,61.07
2019-03-06T17:00:27.603Z,61.33
2019-03-06T17:02:55.129Z,61.28
2019-03-06T17:05:22.165Z,61.54
2019-03-06T17:07:49.499Z,61.64
2019-03-06T17:10:16.645Z,61.92
2019-03-06T17:12:43.308Z,62.26
2019-03-06T17:15:11.669Z,62.78
2019-03-06T17:17:38.304Z,62.51
2019-03-06T17:20:05.350Z,62.83
2019-03-06T17:22:31.989Z,62.76
2019-03-06T17:24:58.668Z,62.85
2019-03-06T17:27:25.315Z,63.08
2019-03-06T17:29:51.930Z,63.10
2019-03-06T17:32:18.613Z,63.30
2019-03-06T17:34:45.238Z,63.50
2019-03-06T17:37:13.021Z,63.68
2019-03-06T17:39:39.673Z,63.66
2019-03-06T17:42:06.444Z,63.98
2019-03-06T17:44:33.357Z,64.13
2019-03-06T17:46:59.923Z,64.31
2019-03-06T17:49:26.609Z,64.46
2019-03-06T17:51:53.142Z,64.41
2019-03-06T17:54:19.888Z,64.33
2019-03-06T17:56:46.836Z,64.45
2019-03-06T17:59:13.593Z,64.82
2019-03-06T18:01:40.237Z,64.97
2019-03-06T18:04:13.935Z,65.28
2019-03-06T18:06:40.637Z,65.23
2019-03-06T18:09:08.403Z,65.54
2019-03-06T18:11:35.096Z,65.54
2019-03-06T18:14:04.616Z,65.75
2019-03-06T18:16:31.526Z,65.78
2019-03-06T18:18:58.167Z,65.96
2019-03-06T18:21:25.588Z,66.06
2019-03-06T18:23:52.374Z,66.09
2019-03-06T18:26:18.935Z,66.33
2019-03-06T18:28:45.572Z,66.23
2019-03-06T18:31:12.378Z,66.42
2019-03-06T18:33:39.083Z,66.44
2019-03-06T18:36:06.038Z,66.78
2019-03-06T18:38:32.801Z,66.64
2019-03-06T18:40:59.484Z,66.51
2019-03-06T18:43:26.253Z,66.64
2019-03-06T18:45:52.973Z,66.55
2019-03-06T18:48:19.658Z,66.99
2019-03-06T18:50:46.312Z,67.12
2019-03-06T18:53:13.011Z,67.27
2019-03-06T18:55:40.050Z,67.49
2019-03-06T18:58:06.788Z,67.64
2019-03-06T19:00:33.878Z,68.01
2019-03-06T19:03:00.635Z,68.09
2019-03-06T19:05:27.302Z,68.23
2019-03-06T19:07:56.049Z,68.37
2019-03-06T19:10:22.897Z,68.43
2019-03-06T19:12:49.878Z,68.84
2019-03-06T19:15:17.453Z,68.85
2019-03-06T19:17:44.193Z,69.17
2019-03-06T19:20:10.946Z,69.41
2019-03-06T19:22:37.793Z,69.63
2019-03-06T19:25:04.887Z,69.53
2019-03-06T19:27:31.590Z,69.96
2019-03-06T19:29:58.169Z,70.16
2019-03-06T19:32:24.934Z,70.35
2019-03-06T19:34:51.566Z,70.52
2019-03-06T19:37:18.210Z,70.79
2019-03-06T19:39:44.882Z,70.97
2019-03-06T19:42:11.640Z,71.28
2019-03-06T19:44:38.414Z,71.15
2019-03-06T19:47:05.299Z,71.44
2019-03-06T19:49:33.016Z,71.64
2019-03-06T19:52:07.690Z,71.71
2019-03-06T19:54:36.618Z,71.95
2019-03-06T19:57:03.476Z,72.08
2019-03-06T19:59:30.241Z,71.90
2019-03-06T20:01:57.032Z,72.44
2019-03-06T20:04:23.682Z,72.44
2019-03-06T20:06:50.658Z,72.38
2019-03-06T20:09:25.460Z,72.58
2019-03-06T20:11:52.229Z,72.69
2019-03-06T20:14:18.899Z,72.80
2019-03-06T20:16:47.756Z,73.04
2019-03-06T20:19:14.515Z,73.29
2019-03-06T20:21:41.193Z,73.38
2019-03-06T20:24:08.221Z,73.52
2019-03-06T20:26:34.972Z,73.48
2019-03-06T20:29:01.754Z,73.64
2019-03-06T20:31:28.658Z,73.73
2019-03-06T20:33:55.440Z,73.86
2019-03-06T20:36:22.359Z,73.99
2019-03-06T20:38:51.102Z,73.98
2019-03-06T20:41:17.827Z,74.10
2019-03-06T20:43:44.668Z,74.30
2019-03-06T20:46:11.412Z,74.41
2019-03-06T20:48:38.270Z,74.15
2019-03-06T20:51:04.997Z,74.18
2019-03-06T20:53:32.072Z,74.13
2019-03-06T20:55:58.819Z,73.99
2019-03-06T20:58:25.449Z,73.95
2019-03-06T21:00:52.178Z,74.03
2019-03-06T21:03:19.161Z,74.06
2019-03-06T21:05:45.904Z,73.91
2019-03-06T21:08:12.759Z,73.89
2019-03-06T21:10:39.635Z,73.87
2019-03-06T21:13:07.475Z,73.84
2019-03-06T21:15:34.204Z,74.03
2019-03-06T21:18:01.012Z,73.91
2019-03-06T21:20:28.271Z,73.72
2019-03-06T21:22:55.302Z,73.79
2019-03-06T21:25:22.110Z,73.66
2019-03-06T21:27:50.063Z,73.53
2019-03-06T21:30:22.920Z,73.62
2019-03-06T21:32:50.669Z,73.55
2019-03-06T21:35:18.462Z,73.42
2019-03-06T21:37:44.981Z,73.46
2019-03-06T21:40:11.814Z,73.23
2019-03-06T21:42:38.535Z,73.29
2019-03-06T21:45:05.798Z,73.25
2019-03-06T21:47:32.662Z,73.27
2019-03-06T21:49:59.305Z,73.27
2019-03-06T21:52:25.934Z,73.41
2019-03-06T21:54:52.578Z,73.39
2019-03-06T21:57:19.408Z,73.66
2019-03-06T21:59:46.191Z,73.53
2019-03-06T22:02:14.028Z,73.61
2019-03-06T22:04:41.416Z,73.60
2019-03-06T22:07:09.180Z,73.71
2019-03-06T22:09:36.287Z,73.71
2019-03-06T22:12:03.076Z,73.83
2019-03-06T22:14:29.782Z,73.84
2019-03-06T22:16:56.527Z,73.97
2019-03-06T22:19:23.099Z,73.82
2019-03-06T22:21:50.265Z,73.89
2019-03-06T22:24:16.829Z,73.90
2019-03-06T22:26:43.664Z,74.03
2019-03-06T22:29:12.596Z,73.98
2019-03-06T22:31:39.032Z,74.19
2019-03-06T22:34:05.853Z,74.41
2019-03-06T22:36:32.697Z,74.44
2019-03-06T22:38:59.431Z,74.53
2019-03-06T22:41:26.281Z,74.61
2019-03-06T22:43:52.935Z,74.74
2019-03-06T22:46:19.568Z,74.89
2019-03-06T22:48:46.212Z,74.87
2019-03-06T22:51:12.870Z,74.88
2019-03-06T22:53:39.494Z,74.77
2019-03-06T22:56:06.224Z,74.68
2019-03-06T22:58:33.027Z,74.61
2019-03-06T23:01:10.755Z,74.58
2019-03-06T23:03:37.445Z,74.38
2019-03-06T23:06:04.075Z,74.52
2019-03-06T23:08:30.718Z,74.41
2019-03-06T23:10:57.378Z,74.59
2019-03-06T23:13:24.325Z,74.58
2019-03-06T23:15:50.994Z,74.62
2019-03-06T23:18:17.535Z,74.69
2019-03-06T23:20:44.212Z,74.73
2019-03-06T23:23:10.864Z,74.74
2019-03-06T23:25:37.515Z,74.62
2019-03-06T23:28:04.155Z,74.42
2019-03-06T23:30:31.065Z,74.29
2019-03-06T23:32:57.635Z,74.21
2019-03-06T23:35:24.288Z,74.08
2019-03-06T23:37:50.911Z,73.85
2019-03-06T23:40:17.537Z,73.78
2019-03-06T23:42:44.274Z,73.76
2019-03-06T23:45:11.010Z,73.74
2019-03-06T23:47:37.987Z,73.77
2019-03-06T23:50:04.689Z,73.75
2019-03-06T23:52:35.850Z,73.93
2019-03-06T23:55:02.690Z,73.95
2019-03-06T23:57:29.348Z,73.97
2019-03-06T23:59:55.889Z,73.87
